EGWC weather

DCAE Cosford Air Base
Cosford, England, United Kingdom

Public forecast

Using degrees Celsius for public forecast. Weather courtesy of forecast.io.

Current aviation weather report (METAR) for DCAE Cosford Air Base

Report is more than 2 hours old.

Retrieved 2019/10/16 13:50 UTC (4 hours ago):

EGWC 161350Z 26008KT 9999 FEW025 SCT250 13/07 Q1002 RMK BLU

Closest aviation forecast (TAF) to DCAE Cosford Air Base

Forecast is more than 12 hours old.

Closest forecast is RAF Shawbury, 16.2 nm (30.1 km) NW. Retrieved 2010/10/20 21:33 UTC (9 years ago):

TAF TAF EGOS 201947Z 2021/2124 CNL